Aérodrome :
LOGIN :

S'inscrire | Disclaimer

   EN    FR    IT 

 










Légende :    VFR   VFR Marginal   IFR   IFR Intensif   IFR Très Intensif
Visi : 
Plafond : 
>= 8 km
>= 3000ft
5 à 8 km
1000 à 3000 ft
1500m à 5 km
500 à 1000 ft
800 à 1500m
200 à 500 ft
< 800m
< 200 ft
Symboles :   Orages  Brouillard  Fortes neiges  Fortes précipitations  Vent > 20 kt
SIGMETs :   Divers  Orages  Givrage  Turbulence  Onde Orograph.  Cendres Volcan.







- Altitude de l'aérodrome : 79 ft
- Code IATA : NSY


LICZ - Sigonella (Mil) Catania

DERNIER METAR :
  • 191055Z 09013KT 9999 FEW025TCU SCT030 31/18 Q1013 RMK SCT VIS MIN 9999 WIND THR28 09012KT WIND THR10 10012KT A2993 BLU

METARs EXPIRÉS :
  • 190955Z 09008KT 9999 SCT025 32/19 Q1013 RMK SCT VIS MIN 9999 WIND THR28 09011KT WIND THR10 08006KT A2994 BLU
  • 190855Z 18004KT 9999 FEW020 30/18 Q1014 RMK FEW VIS MIN 9999 WIND THR28 14004KT WIND THR10 09005KT A2995 BLU

TAF TAF LICZ
Valide du 19 à 12h jusqu'au 19 à 21h UTC


191100Z 1912/1921 09016KT 9999 FEW025 SCT070
TEMPO 1914/1918 8000 TSRA FEW020CB
Pas de NOTAMs connus pour ce terrain.
1 SIGMET publié pour la FIR Roma (LIRR) :
 
Turbulence forte
LIRR SIGMET 2 VALID 190920/191120 LIIB
LIRR ROMA FIR SEV TURB FCST WI N3836 E00851 - N4038 E01121 - N4328 E01215 - N4304 E00949 - N4118 E00953 - N4118 E00827 - N4102 E00757 - N3905 E00758 - N3836 E00851 FL220/360 STNR WKN=



MET'MAP, la Météo Aéronautique d'un coup d'oeil ! - Copyright ORBIFLY Décembre 2007 - Disclaimer

ORBIFLY MET'MAP TEAM :

Programmation & Développement : Alexandra Zaïnal
Conception & Développement : Baudouin d'Aumeries
Co-Programmation & Développement : Marc-Olivier Méhu
Soutien technique & logistique : Manuel Goepfert

Contact : metmap@orbifly.com




SOURCES & CREDITS :

   NOAA